sensor_id;sensor_type;location;lat;lon;timestamp;temperature;humidity
65472;DHT22;52068;50.710;14.492;2022-08-19T00:00:26;26.85;54.10
65472;DHT22;52068;50.710;14.492;2022-08-19T00:02:53;26.86;54.05
65472;DHT22;52068;50.710;14.492;2022-08-19T00:05:19;26.84;54.03
65472;DHT22;52068;50.710;14.492;2022-08-19T00:07:45;26.84;54.06
65472;DHT22;52068;50.710;14.492;2022-08-19T00:10:13;26.81;54.03
65472;DHT22;52068;50.710;14.492;2022-08-19T00:12:39;26.81;54.14
65472;DHT22;52068;50.710;14.492;2022-08-19T00:15:11;26.84;54.12
65472;DHT22;52068;50.710;14.492;2022-08-19T00:17:41;26.82;54.19
65472;DHT22;52068;50.710;14.492;2022-08-19T00:20:09;26.82;54.15
65472;DHT22;52068;50.710;14.492;2022-08-19T00:22:36;26.81;54.15
65472;DHT22;52068;50.710;14.492;2022-08-19T00:25:01;26.78;54.25
65472;DHT22;52068;50.710;14.492;2022-08-19T00:27:26;26.74;54.36
65472;DHT22;52068;50.710;14.492;2022-08-19T00:29:52;26.74;54.52
65472;DHT22;52068;50.710;14.492;2022-08-19T00:32:18;26.71;54.50
65472;DHT22;52068;50.710;14.492;2022-08-19T00:34:43;26.72;54.42
65472;DHT22;52068;50.710;14.492;2022-08-19T00:37:08;26.74;54.38
65472;DHT22;52068;50.710;14.492;2022-08-19T00:39:34;26.71;54.36
65472;DHT22;52068;50.710;14.492;2022-08-19T00:41:59;26.72;54.47
65472;DHT22;52068;50.710;14.492;2022-08-19T00:44:28;26.71;54.52
65472;DHT22;52068;50.710;14.492;2022-08-19T00:46:55;26.71;54.64
65472;DHT22;52068;50.710;14.492;2022-08-19T00:52:16;26.68;54.96
65472;DHT22;52068;50.710;14.492;2022-08-19T00:54:42;26.67;54.98
65472;DHT22;52068;50.710;14.492;2022-08-19T00:57:12;26.67;54.80
65472;DHT22;52068;50.710;14.492;2022-08-19T00:59:41;26.65;54.79
65472;DHT22;52068;50.710;14.492;2022-08-19T01:02:08;26.64;54.82
65472;DHT22;52068;50.710;14.492;2022-08-19T01:04:33;26.64;54.86
65472;DHT22;52068;50.710;14.492;2022-08-19T01:06:59;26.61;54.76
65472;DHT22;52068;50.710;14.492;2022-08-19T01:09:26;26.62;54.70
65472;DHT22;52068;50.710;14.492;2022-08-19T01:11:52;26.58;54.72
65472;DHT22;52068;50.710;14.492;2022-08-19T01:14:18;26.55;54.77
65472;DHT22;52068;50.710;14.492;2022-08-19T01:16:45;26.55;54.74
65472;DHT22;52068;50.710;14.492;2022-08-19T01:19:26;26.47;54.81
65472;DHT22;52068;50.710;14.492;2022-08-19T01:21:59;26.49;54.82
65472;DHT22;52068;50.710;14.492;2022-08-19T01:24:26;26.51;54.95
65472;DHT22;52068;50.710;14.492;2022-08-19T01:26:51;26.47;54.91
65472;DHT22;52068;50.710;14.492;2022-08-19T01:29:17;26.47;54.95
65472;DHT22;52068;50.710;14.492;2022-08-19T01:31:42;26.47;54.99
65472;DHT22;52068;50.710;14.492;2022-08-19T01:34:07;26.48;54.90
65472;DHT22;52068;50.710;14.492;2022-08-19T01:36:35;26.47;54.98
65472;DHT22;52068;50.710;14.492;2022-08-19T01:39:05;26.44;55.27
65472;DHT22;52068;50.710;14.492;2022-08-19T01:41:31;26.43;55.31
65472;DHT22;52068;50.710;14.492;2022-08-19T01:43:57;26.44;55.42
65472;DHT22;52068;50.710;14.492;2022-08-19T01:46:22;26.44;55.45
65472;DHT22;52068;50.710;14.492;2022-08-19T01:48:47;26.44;55.48
65472;DHT22;52068;50.710;14.492;2022-08-19T01:51:13;26.41;55.59
65472;DHT22;52068;50.710;14.492;2022-08-19T01:53:39;26.41;55.66
65472;DHT22;52068;50.710;14.492;2022-08-19T01:56:06;26.44;55.69
65472;DHT22;52068;50.710;14.492;2022-08-19T01:58:44;26.43;55.72
65472;DHT22;52068;50.710;14.492;2022-08-19T02:01:12;26.41;55.63
65472;DHT22;52068;50.710;14.492;2022-08-19T02:03:39;26.43;55.65
65472;DHT22;52068;50.710;14.492;2022-08-19T02:06:05;26.44;55.73
65472;DHT22;52068;50.710;14.492;2022-08-19T02:08:32;26.43;55.75
65472;DHT22;52068;50.710;14.492;2022-08-19T02:10:58;26.44;55.74
65472;DHT22;52068;50.710;14.492;2022-08-19T02:13:25;26.45;55.91
65472;DHT22;52068;50.710;14.492;2022-08-19T02:15:51;26.47;55.91
65472;DHT22;52068;50.710;14.492;2022-08-19T02:18:16;26.47;56.10
65472;DHT22;52068;50.710;14.492;2022-08-19T02:20:42;26.48;56.01
65472;DHT22;52068;50.710;14.492;2022-08-19T02:23:09;26.47;55.94
65472;DHT22;52068;50.710;14.492;2022-08-19T02:25:35;26.47;56.20
65472;DHT22;52068;50.710;14.492;2022-08-19T02:28:01;26.51;56.09
65472;DHT22;52068;50.710;14.492;2022-08-19T02:30:26;26.52;56.09
65472;DHT22;52068;50.710;14.492;2022-08-19T02:32:52;26.52;56.28
65472;DHT22;52068;50.710;14.492;2022-08-19T02:35:18;26.52;56.12
65472;DHT22;52068;50.710;14.492;2022-08-19T02:37:44;26.54;56.02
65472;DHT22;52068;50.710;14.492;2022-08-19T02:40:29;26.54;56.06
65472;DHT22;52068;50.710;14.492;2022-08-19T02:42:57;26.54;56.08
65472;DHT22;52068;50.710;14.492;2022-08-19T02:45:22;26.52;56.12
65472;DHT22;52068;50.710;14.492;2022-08-19T02:47:48;26.52;56.09
65472;DHT22;52068;50.710;14.492;2022-08-19T02:50:13;26.52;56.05
65472;DHT22;52068;50.710;14.492;2022-08-19T02:52:40;26.54;55.97
65472;DHT22;52068;50.710;14.492;2022-08-19T02:55:06;26.54;56.12
65472;DHT22;52068;50.710;14.492;2022-08-19T02:57:31;26.52;55.99
65472;DHT22;52068;50.710;14.492;2022-08-19T02:59:57;26.52;56.12
65472;DHT22;52068;50.710;14.492;2022-08-19T03:02:23;26.54;56.22
65472;DHT22;52068;50.710;14.492;2022-08-19T03:04:48;26.54;56.17
65472;DHT22;52068;50.710;14.492;2022-08-19T03:07:15;26.52;56.30
65472;DHT22;52068;50.710;14.492;2022-08-19T03:09:41;26.52;56.16
65472;DHT22;52068;50.710;14.492;2022-08-19T03:12:08;26.52;56.31
65472;DHT22;52068;50.710;14.492;2022-08-19T03:14:34;26.52;56.39
65472;DHT22;52068;50.710;14.492;2022-08-19T03:16:59;26.54;56.35
65472;DHT22;52068;50.710;14.492;2022-08-19T03:19:25;26.52;56.31
65472;DHT22;52068;50.710;14.492;2022-08-19T03:21:51;26.52;56.42
65472;DHT22;52068;50.710;14.492;2022-08-19T03:24:17;26.54;56.36
65472;DHT22;52068;50.710;14.492;2022-08-19T03:26:47;26.54;56.69
65472;DHT22;52068;50.710;14.492;2022-08-19T03:29:14;26.56;56.50
65472;DHT22;52068;50.710;14.492;2022-08-19T03:31:41;26.56;56.23
65472;DHT22;52068;50.710;14.492;2022-08-19T03:34:08;26.56;56.40
65472;DHT22;52068;50.710;14.492;2022-08-19T03:36:35;26.59;56.10
65472;DHT22;52068;50.710;14.492;2022-08-19T03:39:01;26.61;56.18
65472;DHT22;52068;50.710;14.492;2022-08-19T03:41:31;26.58;56.07
65472;DHT22;52068;50.710;14.492;2022-08-19T03:43:58;26.58;56.00
65472;DHT22;52068;50.710;14.492;2022-08-19T03:46:26;26.58;55.89
65472;DHT22;52068;50.710;14.492;2022-08-19T03:48:53;26.58;55.78
65472;DHT22;52068;50.710;14.492;2022-08-19T03:51:38;26.59;55.79
65472;DHT22;52068;50.710;14.492;2022-08-19T03:54:06;26.59;56.10
65472;DHT22;52068;50.710;14.492;2022-08-19T03:56:35;26.59;56.07
65472;DHT22;52068;50.710;14.492;2022-08-19T03:59:02;26.59;56.41
65472;DHT22;52068;50.710;14.492;2022-08-19T04:01:28;26.55;56.37
65472;DHT22;52068;50.710;14.492;2022-08-19T04:03:58;26.55;56.32
65472;DHT22;52068;50.710;14.492;2022-08-19T04:06:27;26.54;56.43
65472;DHT22;52068;50.710;14.492;2022-08-19T04:08:54;26.55;56.27
65472;DHT22;52068;50.710;14.492;2022-08-19T04:11:23;26.55;56.21
65472;DHT22;52068;50.710;14.492;2022-08-19T04:13:51;26.54;56.31
65472;DHT22;52068;50.710;14.492;2022-08-19T04:16:18;26.55;56.16
65472;DHT22;52068;50.710;14.492;2022-08-19T04:18:45;26.52;56.19
65472;DHT22;52068;50.710;14.492;2022-08-19T04:21:16;26.54;56.26
65472;DHT22;52068;50.710;14.492;2022-08-19T04:23:42;26.52;56.27
65472;DHT22;52068;50.710;14.492;2022-08-19T04:26:12;26.51;56.06
65472;DHT22;52068;50.710;14.492;2022-08-19T04:28:37;26.51;56.20
65472;DHT22;52068;50.710;14.492;2022-08-19T04:31:03;26.51;56.55
65472;DHT22;52068;50.710;14.492;2022-08-19T04:33:28;26.49;56.58
65472;DHT22;52068;50.710;14.492;2022-08-19T04:35:54;26.47;56.79
65472;DHT22;52068;50.710;14.492;2022-08-19T04:38:21;26.44;56.91
65472;DHT22;52068;50.710;14.492;2022-08-19T04:40:50;26.41;57.11
65472;DHT22;52068;50.710;14.492;2022-08-19T04:43:36;26.35;57.31
65472;DHT22;52068;50.710;14.492;2022-08-19T04:46:07;26.34;57.52
65472;DHT22;52068;50.710;14.492;2022-08-19T04:48:33;26.34;57.35
65472;DHT22;52068;50.710;14.492;2022-08-19T04:50:59;26.33;57.40
65472;DHT22;52068;50.710;14.492;2022-08-19T04:53:29;26.35;57.20
65472;DHT22;52068;50.710;14.492;2022-08-19T04:55:59;26.40;56.69
65472;DHT22;52068;50.710;14.492;2022-08-19T04:58:28;26.44;56.33
65472;DHT22;52068;50.710;14.492;2022-08-19T05:00:53;26.47;56.06
65472;DHT22;52068;50.710;14.492;2022-08-19T05:03:19;26.48;56.65
65472;DHT22;52068;50.710;14.492;2022-08-19T05:05:46;26.47;57.19
65472;DHT22;52068;50.710;14.492;2022-08-19T05:08:15;26.38;57.34
65472;DHT22;52068;50.710;14.492;2022-08-19T05:10:49;26.35;57.23
65472;DHT22;52068;50.710;14.492;2022-08-19T05:13:15;26.33;57.76
65472;DHT22;52068;50.710;14.492;2022-08-19T05:15:42;26.27;57.84
65472;DHT22;52068;50.710;14.492;2022-08-19T05:18:08;26.27;58.09
65472;DHT22;52068;50.710;14.492;2022-08-19T05:20:52;26.27;57.74
65472;DHT22;52068;50.710;14.492;2022-08-19T05:23:36;26.34;57.34
65472;DHT22;52068;50.710;14.492;2022-08-19T05:26:02;26.37;57.02
65472;DHT22;52068;50.710;14.492;2022-08-19T05:28:27;26.41;56.73
65472;DHT22;52068;50.710;14.492;2022-08-19T05:30:53;26.43;56.48
65472;DHT22;52068;50.710;14.492;2022-08-19T05:33:21;26.49;56.25
65472;DHT22;52068;50.710;14.492;2022-08-19T05:35:46;26.51;56.14
65472;DHT22;52068;50.710;14.492;2022-08-19T05:38:13;26.55;55.92
65472;DHT22;52068;50.710;14.492;2022-08-19T05:40:39;26.58;56.24
65472;DHT22;52068;50.710;14.492;2022-08-19T05:43:06;26.56;56.10
65472;DHT22;52068;50.710;14.492;2022-08-19T05:45:31;26.59;56.02
65472;DHT22;52068;50.710;14.492;2022-08-19T05:47:57;26.61;55.98
65472;DHT22;52068;50.710;14.492;2022-08-19T05:50:24;26.64;55.97
65472;DHT22;52068;50.710;14.492;2022-08-19T05:52:50;26.65;56.23
65472;DHT22;52068;50.710;14.492;2022-08-19T05:55:16;26.68;56.43
65472;DHT22;52068;50.710;14.492;2022-08-19T05:57:42;26.65;56.91
65472;DHT22;52068;50.710;14.492;2022-08-19T06:00:07;26.62;57.20
65472;DHT22;52068;50.710;14.492;2022-08-19T06:02:36;26.58;57.08
65472;DHT22;52068;50.710;14.492;2022-08-19T06:05:03;26.55;57.21
65472;DHT22;52068;50.710;14.492;2022-08-19T06:07:28;26.54;57.43
65472;DHT22;52068;50.710;14.492;2022-08-19T06:09:54;26.49;57.89
65472;DHT22;52068;50.710;14.492;2022-08-19T06:12:20;26.45;57.51
65472;DHT22;52068;50.710;14.492;2022-08-19T06:14:51;26.45;57.60
65472;DHT22;52068;50.710;14.492;2022-08-19T06:17:17;26.44;57.73
65472;DHT22;52068;50.710;14.492;2022-08-19T06:19:43;26.45;57.71
65472;DHT22;52068;50.710;14.492;2022-08-19T06:22:08;26.44;57.75
65472;DHT22;52068;50.710;14.492;2022-08-19T06:24:36;26.47;57.62
65472;DHT22;52068;50.710;14.492;2022-08-19T06:27:03;26.45;57.74
65472;DHT22;52068;50.710;14.492;2022-08-19T06:29:30;26.41;57.95
65472;DHT22;52068;50.710;14.492;2022-08-19T06:31:59;26.35;58.08
65472;DHT22;52068;50.710;14.492;2022-08-19T06:34:26;26.31;57.95
65472;DHT22;52068;50.710;14.492;2022-08-19T06:36:53;26.33;58.06
65472;DHT22;52068;50.710;14.492;2022-08-19T06:39:26;26.27;58.31
65472;DHT22;52068;50.710;14.492;2022-08-19T06:41:53;26.25;58.18
65472;DHT22;52068;50.710;14.492;2022-08-19T06:44:20;26.24;58.08
65472;DHT22;52068;50.710;14.492;2022-08-19T06:46:46;26.24;58.05
65472;DHT22;52068;50.710;14.492;2022-08-19T06:49:14;26.25;57.96
65472;DHT22;52068;50.710;14.492;2022-08-19T06:51:41;26.27;57.86
65472;DHT22;52068;50.710;14.492;2022-08-19T06:54:07;26.31;57.89
65472;DHT22;52068;50.710;14.492;2022-08-19T06:56:33;26.31;57.83
65472;DHT22;52068;50.710;14.492;2022-08-19T06:59:20;26.28;58.03
65472;DHT22;52068;50.710;14.492;2022-08-19T07:01:51;26.27;58.01
65472;DHT22;52068;50.710;14.492;2022-08-19T07:04:19;26.28;58.12
65472;DHT22;52068;50.710;14.492;2022-08-19T07:06:45;26.28;58.18
65472;DHT22;52068;50.710;14.492;2022-08-19T07:09:15;26.25;58.12
65472;DHT22;52068;50.710;14.492;2022-08-19T07:11:49;26.25;58.16
65472;DHT22;52068;50.710;14.492;2022-08-19T07:14:17;26.21;58.23
65472;DHT22;52068;50.710;14.492;2022-08-19T07:16:44;26.23;58.02
65472;DHT22;52068;50.710;14.492;2022-08-19T07:19:11;26.25;57.90
65472;DHT22;52068;50.710;14.492;2022-08-19T07:21:36;26.28;57.78
65472;DHT22;52068;50.710;14.492;2022-08-19T07:24:02;26.35;57.56
65472;DHT22;52068;50.710;14.492;2022-08-19T07:26:31;26.38;57.39
65472;DHT22;52068;50.710;14.492;2022-08-19T07:28:57;26.40;57.12
65472;DHT22;52068;50.710;14.492;2022-08-19T07:31:25;26.44;56.94
65472;DHT22;52068;50.710;14.492;2022-08-19T07:33:53;26.48;56.84
65472;DHT22;52068;50.710;14.492;2022-08-19T07:36:22;26.48;56.79
65472;DHT22;52068;50.710;14.492;2022-08-19T07:38:50;26.54;56.61
65472;DHT22;52068;50.710;14.492;2022-08-19T07:41:20;26.54;56.69
65472;DHT22;52068;50.710;14.492;2022-08-19T07:43:47;26.56;56.55
65472;DHT22;52068;50.710;14.492;2022-08-19T07:46:13;26.56;56.61
65472;DHT22;52068;50.710;14.492;2022-08-19T07:48:41;26.56;56.76
65472;DHT22;52068;50.710;14.492;2022-08-19T07:51:09;26.52;56.76
65472;DHT22;52068;50.710;14.492;2022-08-19T07:53:36;26.51;56.74
65472;DHT22;52068;50.710;14.492;2022-08-19T07:56:02;26.47;57.04
65472;DHT22;52068;50.710;14.492;2022-08-19T07:58:37;26.45;57.11
65472;DHT22;52068;50.710;14.492;2022-08-19T08:01:05;26.45;56.98
65472;DHT22;52068;50.710;14.492;2022-08-19T08:03:31;26.47;56.97
65472;DHT22;52068;50.710;14.492;2022-08-19T08:06:15;26.51;56.94
65472;DHT22;52068;50.710;14.492;2022-08-19T08:09:03;26.48;57.01
65472;DHT22;52068;50.710;14.492;2022-08-19T08:12:20;26.48;57.01
65472;DHT22;52068;50.710;14.492;2022-08-19T08:14:51;26.47;56.93
65472;DHT22;52068;50.710;14.492;2022-08-19T08:17:19;26.51;56.95
65472;DHT22;52068;50.710;14.492;2022-08-19T08:19:45;26.49;56.89
65472;DHT22;52068;50.710;14.492;2022-08-19T08:22:14;26.51;56.90
65472;DHT22;52068;50.710;14.492;2022-08-19T08:25:09;26.54;56.84
65472;DHT22;52068;50.710;14.492;2022-08-19T08:27:37;26.54;56.88
65472;DHT22;52068;50.710;14.492;2022-08-19T08:30:06;26.56;56.67
65472;DHT22;52068;50.710;14.492;2022-08-19T08:32:35;26.59;56.47
65472;DHT22;52068;50.710;14.492;2022-08-19T08:35:00;26.61;56.30
65472;DHT22;52068;50.710;14.492;2022-08-19T08:37:26;26.64;56.02
65472;DHT22;52068;50.710;14.492;2022-08-19T08:39:51;26.67;55.78
65472;DHT22;52068;50.710;14.492;2022-08-19T08:42:28;26.67;55.66
65472;DHT22;52068;50.710;14.492;2022-08-19T08:45:00;26.69;55.48
65472;DHT22;52068;50.710;14.492;2022-08-19T08:47:34;26.72;55.53
65472;DHT22;52068;50.710;14.492;2022-08-19T08:50:12;26.74;55.52
65472;DHT22;52068;50.710;14.492;2022-08-19T08:52:44;26.76;55.63
65472;DHT22;52068;50.710;14.492;2022-08-19T08:55:17;26.72;55.65
65472;DHT22;52068;50.710;14.492;2022-08-19T09:00:19;26.74;55.75
65472;DHT22;52068;50.710;14.492;2022-08-19T09:02:46;26.74;55.85
65472;DHT22;52068;50.710;14.492;2022-08-19T09:05:11;26.76;55.82
65472;DHT22;52068;50.710;14.492;2022-08-19T09:10:34;26.76;56.02
65472;DHT22;52068;50.710;14.492;2022-08-19T09:13:11;26.72;56.35
65472;DHT22;52068;50.710;14.492;2022-08-19T09:15:50;26.74;56.26
65472;DHT22;52068;50.710;14.492;2022-08-19T09:18:17;26.74;56.38
65472;DHT22;52068;50.710;14.492;2022-08-19T09:20:43;26.74;56.35
65472;DHT22;52068;50.710;14.492;2022-08-19T09:23:08;26.75;56.43
65472;DHT22;52068;50.710;14.492;2022-08-19T09:25:36;26.75;56.26
65472;DHT22;52068;50.710;14.492;2022-08-19T09:28:01;26.78;56.10
65472;DHT22;52068;50.710;14.492;2022-08-19T09:30:34;26.76;56.03
65472;DHT22;52068;50.710;14.492;2022-08-19T09:33:00;26.79;56.00
65472;DHT22;52068;50.710;14.492;2022-08-19T09:35:28;26.78;55.96
65472;DHT22;52068;50.710;14.492;2022-08-19T09:37:55;26.79;56.04
65472;DHT22;52068;50.710;14.492;2022-08-19T09:40:22;26.78;56.13
65472;DHT22;52068;50.710;14.492;2022-08-19T09:42:47;26.76;56.51
65472;DHT22;52068;50.710;14.492;2022-08-19T09:45:14;26.68;56.55
65472;DHT22;52068;50.710;14.492;2022-08-19T09:47:40;26.65;56.63
65472;DHT22;52068;50.710;14.492;2022-08-19T09:50:07;26.62;56.82
65472;DHT22;52068;50.710;14.492;2022-08-19T09:52:33;26.58;56.82
65472;DHT22;52068;50.710;14.492;2022-08-19T09:55:04;26.51;57.10
65472;DHT22;52068;50.710;14.492;2022-08-19T09:57:29;26.54;56.77
65472;DHT22;52068;50.710;14.492;2022-08-19T09:59:55;26.52;56.89
65472;DHT22;52068;50.710;14.492;2022-08-19T10:02:20;26.56;56.77
65472;DHT22;52068;50.710;14.492;2022-08-19T10:04:45;26.58;56.65
65472;DHT22;52068;50.710;14.492;2022-08-19T10:07:29;26.61;56.48
65472;DHT22;52068;50.710;14.492;2022-08-19T10:09:55;26.64;56.42
65472;DHT22;52068;50.710;14.492;2022-08-19T10:12:20;26.65;56.54
65472;DHT22;52068;50.710;14.492;2022-08-19T10:14:47;26.68;56.41
65472;DHT22;52068;50.710;14.492;2022-08-19T10:17:13;26.69;56.25
65472;DHT22;52068;50.710;14.492;2022-08-19T10:19:38;26.71;56.18
65472;DHT22;52068;50.710;14.492;2022-08-19T10:22:05;26.72;56.07
65472;DHT22;52068;50.710;14.492;2022-08-19T10:24:32;26.72;56.27
65472;DHT22;52068;50.710;14.492;2022-08-19T10:26:59;26.75;56.20
65472;DHT22;52068;50.710;14.492;2022-08-19T10:29:26;26.75;55.99
65472;DHT22;52068;50.710;14.492;2022-08-19T10:31:53;26.76;55.95
65472;DHT22;52068;50.710;14.492;2022-08-19T10:34:18;26.78;55.98
65472;DHT22;52068;50.710;14.492;2022-08-19T10:36:44;26.78;55.81
65472;DHT22;52068;50.710;14.492;2022-08-19T10:39:10;26.76;55.69
65472;DHT22;52068;50.710;14.492;2022-08-19T10:41:38;26.78;55.78
65472;DHT22;52068;50.710;14.492;2022-08-19T10:44:06;26.79;55.68
65472;DHT22;52068;50.710;14.492;2022-08-19T10:46:36;26.81;55.41
65472;DHT22;52068;50.710;14.492;2022-08-19T10:49:04;26.81;55.83
65472;DHT22;52068;50.710;14.492;2022-08-19T10:51:30;26.81;56.02
65472;DHT22;52068;50.710;14.492;2022-08-19T10:54:15;26.76;56.33
65472;DHT22;52068;50.710;14.492;2022-08-19T10:56:41;26.75;56.42
65472;DHT22;52068;50.710;14.492;2022-08-19T10:59:23;26.76;56.42
65472;DHT22;52068;50.710;14.492;2022-08-19T11:01:50;26.75;56.45
65472;DHT22;52068;50.710;14.492;2022-08-19T11:04:17;26.75;56.51
65472;DHT22;52068;50.710;14.492;2022-08-19T11:06:47;26.76;56.38
65472;DHT22;52068;50.710;14.492;2022-08-19T11:09:20;26.74;56.51
65472;DHT22;52068;50.710;14.492;2022-08-19T11:11:46;26.78;56.37
65472;DHT22;52068;50.710;14.492;2022-08-19T11:14:16;26.78;56.32
65472;DHT22;52068;50.710;14.492;2022-08-19T11:16:43;26.78;56.28
65472;DHT22;52068;50.710;14.492;2022-08-19T11:19:11;26.78;56.15
65472;DHT22;52068;50.710;14.492;2022-08-19T11:21:40;26.81;55.94
65472;DHT22;52068;50.710;14.492;2022-08-19T11:24:08;26.81;56.04
65472;DHT22;52068;50.710;14.492;2022-08-19T11:26:35;26.82;55.98
65472;DHT22;52068;50.710;14.492;2022-08-19T11:29:02;26.85;56.16
65472;DHT22;52068;50.710;14.492;2022-08-19T11:31:33;26.86;55.91
65472;DHT22;52068;50.710;14.492;2022-08-19T11:34:02;26.84;55.93
65472;DHT22;52068;50.710;14.492;2022-08-19T11:36:29;26.84;56.17
65472;DHT22;52068;50.710;14.492;2022-08-19T11:38:55;26.84;56.01
65472;DHT22;52068;50.710;14.492;2022-08-19T11:41:22;26.86;56.12
65472;DHT22;52068;50.710;14.492;2022-08-19T11:43:49;26.84;56.10
65472;DHT22;52068;50.710;14.492;2022-08-19T11:46:16;26.85;56.05
65472;DHT22;52068;50.710;14.492;2022-08-19T11:48:42;26.88;56.32
65472;DHT22;52068;50.710;14.492;2022-08-19T11:51:14;26.89;56.09
65472;DHT22;52068;50.710;14.492;2022-08-19T11:53:40;26.89;56.20
65472;DHT22;52068;50.710;14.492;2022-08-19T11:56:07;26.91;56.14
65472;DHT22;52068;50.710;14.492;2022-08-19T11:58:34;26.89;56.38
65472;DHT22;52068;50.710;14.492;2022-08-19T12:01:00;26.89;56.38
65472;DHT22;52068;50.710;14.492;2022-08-19T12:03:26;26.89;56.23
65472;DHT22;52068;50.710;14.492;2022-08-19T12:05:52;26.89;56.40
65472;DHT22;52068;50.710;14.492;2022-08-19T12:08:18;26.91;56.47
65472;DHT22;52068;50.710;14.492;2022-08-19T12:10:45;26.92;56.48
65472;DHT22;52068;50.710;14.492;2022-08-19T12:13:12;26.89;56.44
65472;DHT22;52068;50.710;14.492;2022-08-19T12:15:46;26.94;56.46
65472;DHT22;52068;50.710;14.492;2022-08-19T12:18:11;26.96;56.28
65472;DHT22;52068;50.710;14.492;2022-08-19T12:20:40;26.96;56.31
65472;DHT22;52068;50.710;14.492;2022-08-19T12:23:07;26.94;56.53
65472;DHT22;52068;50.710;14.492;2022-08-19T12:25:34;26.94;56.56
65472;DHT22;52068;50.710;14.492;2022-08-19T12:28:00;26.85;56.90
65472;DHT22;52068;50.710;14.492;2022-08-19T12:30:26;26.84;56.88
65472;DHT22;52068;50.710;14.492;2022-08-19T12:32:51;26.84;56.77
65472;DHT22;52068;50.710;14.492;2022-08-19T12:35:17;26.85;56.79
65472;DHT22;52068;50.710;14.492;2022-08-19T12:37:46;26.88;56.92
65472;DHT22;52068;50.710;14.492;2022-08-19T12:40:14;26.88;56.93
65472;DHT22;52068;50.710;14.492;2022-08-19T12:42:40;26.88;56.74
65472;DHT22;52068;50.710;14.492;2022-08-19T12:45:13;26.92;56.71
65472;DHT22;52068;50.710;14.492;2022-08-19T12:47:39;26.94;56.52
65472;DHT22;52068;50.710;14.492;2022-08-19T12:50:05;26.95;56.35
65472;DHT22;52068;50.710;14.492;2022-08-19T12:52:35;27.00;56.27
65472;DHT22;52068;50.710;14.492;2022-08-19T12:55:03;26.99;56.21
65472;DHT22;52068;50.710;14.492;2022-08-19T12:57:29;27.02;55.99
65472;DHT22;52068;50.710;14.492;2022-08-19T13:02:28;27.02;55.58
65472;DHT22;52068;50.710;14.492;2022-08-19T13:04:54;27.05;55.44
65472;DHT22;52068;50.710;14.492;2022-08-19T13:07:19;27.06;55.31
65472;DHT22;52068;50.710;14.492;2022-08-19T13:09:44;27.12;55.15
65472;DHT22;52068;50.710;14.492;2022-08-19T13:12:10;27.15;55.04
65472;DHT22;52068;50.710;14.492;2022-08-19T13:14:39;27.16;55.33
65472;DHT22;52068;50.710;14.492;2022-08-19T13:17:06;27.17;55.39
65472;DHT22;52068;50.710;14.492;2022-08-19T13:19:31;27.22;55.10
65472;DHT22;52068;50.710;14.492;2022-08-19T13:22:00;27.25;55.28
65472;DHT22;52068;50.710;14.492;2022-08-19T13:24:25;27.29;55.15
65472;DHT22;52068;50.710;14.492;2022-08-19T13:26:50;27.30;54.93
65472;DHT22;52068;50.710;14.492;2022-08-19T13:29:16;27.32;55.19
65472;DHT22;52068;50.710;14.492;2022-08-19T13:32:00;27.33;55.06
65472;DHT22;52068;50.710;14.492;2022-08-19T13:34:44;27.35;55.01
65472;DHT22;52068;50.710;14.492;2022-08-19T13:37:11;27.35;54.98
65472;DHT22;52068;50.710;14.492;2022-08-19T13:39:37;27.37;55.15
65472;DHT22;52068;50.710;14.492;2022-08-19T13:42:03;27.37;54.93
65472;DHT22;52068;50.710;14.492;2022-08-19T13:44:29;27.40;55.13
65472;DHT22;52068;50.710;14.492;2022-08-19T13:47:05;27.43;54.97
65472;DHT22;52068;50.710;14.492;2022-08-19T13:49:33;27.42;54.70
65472;DHT22;52068;50.710;14.492;2022-08-19T13:51:58;27.44;54.39
65472;DHT22;52068;50.710;14.492;2022-08-19T13:54:24;27.47;54.34
65472;DHT22;52068;50.710;14.492;2022-08-19T13:56:49;27.46;54.17
65472;DHT22;52068;50.710;14.492;2022-08-19T13:59:15;27.49;53.98
65472;DHT22;52068;50.710;14.492;2022-08-19T14:01:41;27.47;53.88
65472;DHT22;52068;50.710;14.492;2022-08-19T14:04:07;27.53;53.77
65472;DHT22;52068;50.710;14.492;2022-08-19T14:06:33;27.53;53.68
65472;DHT22;52068;50.710;14.492;2022-08-19T14:08:58;27.54;53.97
65472;DHT22;52068;50.710;14.492;2022-08-19T14:11:23;27.56;54.07
65472;DHT22;52068;50.710;14.492;2022-08-19T14:13:49;27.58;53.93
65472;DHT22;52068;50.710;14.492;2022-08-19T14:16:15;27.63;53.70
65472;DHT22;52068;50.710;14.492;2022-08-19T14:18:41;27.66;53.59
65472;DHT22;52068;50.710;14.492;2022-08-19T14:21:07;27.67;53.39
65472;DHT22;52068;50.710;14.492;2022-08-19T14:23:33;27.70;53.36
65472;DHT22;52068;50.710;14.492;2022-08-19T14:26:11;27.73;53.19
65472;DHT22;52068;50.710;14.492;2022-08-19T14:28:38;27.73;53.20
65472;DHT22;52068;50.710;14.492;2022-08-19T14:31:04;27.74;53.02
65472;DHT22;52068;50.710;14.492;2022-08-19T14:33:29;27.77;52.98
65472;DHT22;52068;50.710;14.492;2022-08-19T14:35:55;27.78;52.87
65472;DHT22;52068;50.710;14.492;2022-08-19T14:38:20;27.80;52.82
65472;DHT22;52068;50.710;14.492;2022-08-19T14:40:45;27.78;52.84
65472;DHT22;52068;50.710;14.492;2022-08-19T14:43:11;27.78;52.88
65472;DHT22;52068;50.710;14.492;2022-08-19T14:45:38;27.78;52.76
65472;DHT22;52068;50.710;14.492;2022-08-19T14:48:05;27.78;52.92
65472;DHT22;52068;50.710;14.492;2022-08-19T14:50:31;27.76;53.06
65472;DHT22;52068;50.710;14.492;2022-08-19T14:52:59;27.80;53.46
65472;DHT22;52068;50.710;14.492;2022-08-19T14:55:26;27.78;53.60
65472;DHT22;52068;50.710;14.492;2022-08-19T14:57:51;27.83;53.78
65472;DHT22;52068;50.710;14.492;2022-08-19T15:00:17;27.83;53.74
65472;DHT22;52068;50.710;14.492;2022-08-19T15:02:43;27.88;53.23
65472;DHT22;52068;50.710;14.492;2022-08-19T15:05:11;27.85;53.18
65472;DHT22;52068;50.710;14.492;2022-08-19T15:07:37;27.88;53.11
65472;DHT22;52068;50.710;14.492;2022-08-19T15:10:04;27.90;53.21
65472;DHT22;52068;50.710;14.492;2022-08-19T15:12:32;27.91;53.34
65472;DHT22;52068;50.710;14.492;2022-08-19T15:14:59;27.90;53.36
65472;DHT22;52068;50.710;14.492;2022-08-19T15:17:24;27.87;53.03
65472;DHT22;52068;50.710;14.492;2022-08-19T15:19:50;27.90;53.35
65472;DHT22;52068;50.710;14.492;2022-08-19T15:22:15;27.90;53.69
65472;DHT22;52068;50.710;14.492;2022-08-19T15:24:40;27.85;53.52
65472;DHT22;52068;50.710;14.492;2022-08-19T15:27:10;27.85;53.66
65472;DHT22;52068;50.710;14.492;2022-08-19T15:29:35;27.87;53.98